createdAt,value
2022-11-07T00:02:17.722Z,100258.35
2022-11-07T00:04:46.097Z,100260.05
2022-11-07T00:07:14.469Z,100257.62
2022-11-07T00:09:43.059Z,100261.05
2022-11-07T00:12:11.348Z,100251.77
2022-11-07T00:14:40.022Z,100245.40
2022-11-07T00:17:09.470Z,100238.69
2022-11-07T00:19:37.904Z,100240.90
2022-11-07T00:22:06.499Z,100241.20
2022-11-07T00:24:35.137Z,100237.40
2022-11-07T00:27:03.773Z,100233.09
2022-11-07T00:29:32.152Z,100237.08
2022-11-07T00:32:00.602Z,100234.66
2022-11-07T00:34:29.197Z,100228.10
2022-11-07T00:36:57.686Z,100229.80
2022-11-07T00:39:26.205Z,100225.98
2022-11-07T00:41:54.873Z,100222.17
2022-11-07T00:44:23.231Z,100220.26
2022-11-07T00:46:51.805Z,100216.58
2022-11-07T00:49:20.215Z,100215.33
2022-11-07T00:51:48.882Z,100212.20
2022-11-07T00:54:17.353Z,100206.14
2022-11-07T00:56:45.728Z,100200.97
2022-11-07T00:59:14.738Z,100194.91
2022-11-07T01:01:43.399Z,100185.07
2022-11-07T01:04:32.673Z,100180.94
2022-11-07T01:07:02.178Z,100180.27
2022-11-07T01:09:30.453Z,100179.78
2022-11-07T01:11:59.244Z,100173.89
2022-11-07T01:14:27.724Z,100163.67
2022-11-07T01:16:56.100Z,100157.77
2022-11-07T01:19:24.789Z,100157.75
2022-11-07T01:21:53.348Z,100150.66
2022-11-07T01:24:21.872Z,100146.36
2022-11-07T01:26:52.175Z,100142.73
2022-11-07T01:29:20.904Z,100139.99
2022-11-07T01:31:49.225Z,100136.88
2022-11-07T01:34:18.198Z,100135.34
2022-11-07T01:36:46.699Z,100131.90
2022-11-07T01:39:15.146Z,100127.60
2022-11-07T01:41:43.982Z,100127.77
2022-11-07T01:44:12.562Z,100123.48
2022-11-07T01:46:43.531Z,100124.91
2022-11-07T01:49:17.922Z,100119.42
2022-11-07T01:51:52.178Z,100113.21
2022-11-07T01:54:24.959Z,100111.30
2022-11-07T01:56:57.242Z,100113.20
2022-11-07T01:59:29.781Z,100112.68
2022-11-07T02:01:59.161Z,100108.90
2022-11-07T02:04:31.341Z,100105.50
2022-11-07T02:07:08.570Z,100108.16
2022-11-07T02:09:37.112Z,100101.94
2022-11-07T02:12:06.498Z,100096.77
2022-11-07T02:14:34.642Z,100100.20
2022-11-07T02:17:03.263Z,100095.83
2022-11-07T02:19:34.704Z,100092.51
2022-11-07T02:22:13.503Z,100091.75
2022-11-07T02:24:42.220Z,100085.89
2022-11-07T02:27:17.731Z,100085.39
2022-11-07T02:29:49.532Z,100091.05
2022-11-07T02:32:17.903Z,100089.77
2022-11-07T02:34:46.135Z,100085.44
2022-11-07T02:37:24.264Z,100080.95
2022-11-07T02:39:53.391Z,100079.11
2022-11-07T02:42:22.488Z,100080.41
2022-11-07T02:44:52.954Z,100078.20
2022-11-07T02:47:21.379Z,100077.70
2022-11-07T02:49:49.745Z,100068.41
2022-11-07T02:52:18.035Z,100064.80
2022-11-07T02:54:46.515Z,100066.52
2022-11-07T02:57:15.064Z,100067.73
2022-11-07T02:59:43.680Z,100066.36
2022-11-07T03:02:11.952Z,100067.93
2022-11-07T03:04:43.960Z,100068.79
2022-11-07T03:07:15.060Z,100068.77
2022-11-07T03:09:43.233Z,100071.52
2022-11-07T03:12:11.656Z,100070.82
2022-11-07T03:14:39.968Z,100071.48
2022-11-07T03:17:09.064Z,100075.79
2022-11-07T03:19:37.363Z,100077.00
2022-11-07T03:22:05.734Z,100078.44
2022-11-07T03:24:34.387Z,100077.45
2022-11-07T03:27:02.576Z,100077.45
2022-11-07T03:29:30.874Z,100075.73
2022-11-07T03:31:59.460Z,100073.17
2022-11-07T03:34:27.632Z,100067.55
2022-11-07T03:36:56.009Z,100065.86
2022-11-07T03:39:26.126Z,100064.86
2022-11-07T03:41:54.610Z,100061.25
2022-11-07T03:44:23.130Z,100057.70
2022-11-07T03:46:51.462Z,100050.70
2022-11-07T03:49:19.644Z,100041.42
2022-11-07T03:51:48.022Z,100035.39
2022-11-07T03:54:16.432Z,100036.30
2022-11-07T03:56:44.634Z,100037.17
2022-11-07T03:59:12.847Z,100039.99
2022-11-07T04:01:41.430Z,100040.09
2022-11-07T04:04:09.809Z,100037.17
2022-11-07T04:06:38.067Z,100031.04
2022-11-07T04:09:06.562Z,100033.36
2022-11-07T04:11:53.479Z,100035.31
2022-11-07T04:14:40.802Z,100039.56
2022-11-07T04:17:20.457Z,100040.89
2022-11-07T04:19:51.334Z,100046.59
2022-11-07T04:22:19.513Z,100046.29
2022-11-07T04:24:48.308Z,100042.55
2022-11-07T04:27:37.713Z,100040.00
2022-11-07T04:30:23.959Z,100034.70
2022-11-07T04:32:58.431Z,100022.62
2022-11-07T04:35:30.870Z,100022.74
2022-11-07T04:38:00.543Z,100023.77
2022-11-07T04:40:29.879Z,100023.06
2022-11-07T04:42:58.706Z,100019.80
2022-11-07T04:45:26.938Z,100014.44
2022-11-07T04:47:55.459Z,100007.53
2022-11-07T04:50:23.856Z,99998.70
2022-11-07T04:52:52.421Z,99993.21
2022-11-07T04:55:25.073Z,99984.92
2022-11-07T04:57:53.580Z,99974.73
2022-11-07T05:00:22.355Z,99976.46
2022-11-07T05:02:51.690Z,99975.45
2022-11-07T05:05:20.476Z,99968.77
2022-11-07T05:07:48.950Z,99955.20
2022-11-07T05:10:26.547Z,99957.21
2022-11-07T05:12:56.136Z,99962.02
2022-11-07T05:15:24.515Z,99963.56
2022-11-07T05:17:53.797Z,99962.70
2022-11-07T05:20:22.192Z,99954.77
2022-11-07T05:23:09.487Z,99964.61
2022-11-07T05:25:39.048Z,99968.11
2022-11-07T05:28:07.501Z,99969.88
2022-11-07T05:30:38.775Z,99963.39
2022-11-07T05:33:08.973Z,99963.27
2022-11-07T05:35:37.250Z,99962.96
2022-11-07T05:38:06.032Z,99964.89
2022-11-07T05:40:39.470Z,99967.02
2022-11-07T05:43:10.267Z,99957.56
2022-11-07T05:45:39.153Z,99959.80
2022-11-07T05:48:13.682Z,99955.17
2022-11-07T05:50:42.162Z,99950.19
2022-11-07T05:53:10.707Z,99951.20
2022-11-07T05:55:39.739Z,99955.35
2022-11-07T05:58:12.515Z,99948.64
2022-11-07T06:00:41.404Z,99937.35
2022-11-07T06:03:10.532Z,99933.55
2022-11-07T06:05:39.391Z,99931.16
2022-11-07T06:08:10.851Z,99942.90
2022-11-07T06:10:41.194Z,99941.21
2022-11-07T06:13:13.476Z,99945.21
2022-11-07T06:15:44.119Z,99945.95
2022-11-07T06:18:18.274Z,99944.93
2022-11-07T06:20:47.379Z,99948.70
2022-11-07T06:23:16.399Z,99951.13
2022-11-07T06:25:44.977Z,99951.61
2022-11-07T06:28:15.050Z,99946.80
2022-11-07T06:30:44.220Z,99948.88
2022-11-07T06:33:16.776Z,99952.45
2022-11-07T06:35:46.040Z,99953.77
2022-11-07T06:38:15.624Z,99950.98
2022-11-07T06:40:44.575Z,99951.34
2022-11-07T06:43:20.009Z,99946.31
2022-11-07T06:45:48.787Z,99945.83
2022-11-07T06:48:17.361Z,99950.44
2022-11-07T06:50:45.513Z,99956.83
2022-11-07T06:53:14.476Z,99953.09
2022-11-07T06:55:43.460Z,99952.85
2022-11-07T06:58:11.647Z,99955.81
2022-11-07T07:00:40.048Z,99962.79
2022-11-07T07:03:08.801Z,99959.85
2022-11-07T07:05:37.638Z,99956.30
2022-11-07T07:08:08.055Z,99954.27
2022-11-07T07:10:44.715Z,99954.28
2022-11-07T07:13:14.767Z,99955.17
2022-11-07T07:15:51.484Z,99953.30
2022-11-07T07:18:20.734Z,99956.16
2022-11-07T07:20:50.613Z,99948.58
2022-11-07T07:23:20.938Z,99948.91
2022-11-07T07:25:49.777Z,99946.51
2022-11-07T07:28:18.078Z,99940.66
2022-11-07T07:30:51.662Z,99939.55
2022-11-07T07:33:21.265Z,99946.41
2022-11-07T07:35:49.514Z,99954.30
2022-11-07T07:38:18.313Z,99946.11
2022-11-07T07:40:47.029Z,99945.75
2022-11-07T07:43:15.984Z,99934.88
2022-11-07T07:45:44.619Z,99933.01
2022-11-07T07:48:12.940Z,99924.44
2022-11-07T07:50:41.426Z,99916.73
2022-11-07T07:53:10.002Z,99916.58
2022-11-07T07:55:38.622Z,99915.95
2022-11-07T07:58:06.866Z,99914.65
2022-11-07T08:00:35.888Z,99913.33
2022-11-07T08:03:10.413Z,99912.46
2022-11-07T08:05:39.680Z,99913.78
2022-11-07T08:08:08.881Z,99908.80
2022-11-07T08:10:42.403Z,99900.03
2022-11-07T08:13:11.483Z,99897.91
2022-11-07T08:15:40.064Z,99900.23
2022-11-07T08:18:08.290Z,99891.98
2022-11-07T08:20:36.699Z,99883.36
2022-11-07T08:23:14.628Z,99885.67
2022-11-07T08:25:52.699Z,99888.75
2022-11-07T08:28:23.713Z,99891.85
2022-11-07T08:31:18.093Z,99899.02
2022-11-07T08:33:46.516Z,99908.98
2022-11-07T08:36:15.209Z,99911.38
2022-11-07T08:38:43.521Z,99905.76
2022-11-07T08:41:12.020Z,99905.36
2022-11-07T08:43:40.636Z,99911.81
2022-11-07T08:46:09.026Z,99914.50
2022-11-07T08:48:37.512Z,99915.02
2022-11-07T08:51:06.194Z,99910.81
2022-11-07T08:53:34.571Z,99915.45
2022-11-07T08:56:04.541Z,99913.48
2022-11-07T08:58:34.003Z,99896.96
2022-11-07T09:01:06.025Z,99894.17
2022-11-07T09:03:45.969Z,99896.48
2022-11-07T09:06:16.272Z,99905.20
2022-11-07T09:08:45.117Z,99914.22
2022-11-07T09:11:16.050Z,99915.30
2022-11-07T09:13:44.986Z,99916.17
2022-11-07T09:16:13.315Z,99915.73
2022-11-07T09:18:41.478Z,99910.70
2022-11-07T09:21:09.702Z,99916.20
2022-11-07T09:23:37.988Z,99917.11
2022-11-07T09:26:07.346Z,99905.74
2022-11-07T09:28:36.382Z,99910.02
2022-11-07T09:31:06.661Z,99913.58
2022-11-07T09:33:35.107Z,99910.02
2022-11-07T09:36:05.468Z,99907.48
2022-11-07T09:38:33.745Z,99903.20
2022-11-07T09:41:10.725Z,99901.61
2022-11-07T09:43:50.264Z,99900.50
2022-11-07T09:46:34.174Z,99899.98
2022-11-07T09:49:14.492Z,99893.83
2022-11-07T09:51:47.592Z,99894.49
2022-11-07T09:54:22.195Z,99904.03
2022-11-07T09:56:51.888Z,99897.62
2022-11-07T09:59:27.725Z,99899.45
2022-11-07T10:01:56.178Z,99895.11
2022-11-07T10:04:26.520Z,99896.33
2022-11-07T10:07:38.474Z,99893.59
2022-11-07T10:10:26.085Z,99891.44
2022-11-07T10:13:17.369Z,99890.52
2022-11-07T10:15:54.394Z,99889.36
2022-11-07T10:18:41.340Z,99889.64
2022-11-07T10:21:39.566Z,99890.88
2022-11-07T10:24:29.237Z,99897.90
2022-11-07T10:26:58.486Z,99899.69
2022-11-07T10:29:44.116Z,99909.07
2022-11-07T10:32:17.022Z,99910.43
2022-11-07T10:34:57.565Z,99910.80
2022-11-07T10:37:26.047Z,99901.75
2022-11-07T10:39:54.527Z,99902.86
2022-11-07T10:42:30.909Z,99900.79
2022-11-07T10:44:59.905Z,99897.64
2022-11-07T10:47:28.266Z,99896.39
2022-11-07T10:50:02.779Z,99903.55
2022-11-07T10:52:31.088Z,99904.33
2022-11-07T10:55:17.074Z,99903.23
2022-11-07T10:57:51.085Z,99899.20
2022-11-07T11:00:24.534Z,99903.55
2022-11-07T11:02:54.125Z,99901.48
2022-11-07T11:05:40.672Z,99898.36
2022-11-07T11:08:18.313Z,99898.03
2022-11-07T11:10:48.385Z,99904.82
2022-11-07T11:13:25.740Z,99905.73
2022-11-07T11:16:00.017Z,99912.14
2022-11-07T11:18:31.237Z,99917.91
2022-11-07T11:21:06.833Z,99917.77
2022-11-07T11:23:37.630Z,99915.77
2022-11-07T11:26:09.231Z,99915.27
2022-11-07T11:28:48.709Z,99912.07
2022-11-07T11:31:32.754Z,99909.10
2022-11-07T11:34:19.445Z,99908.59
2022-11-07T11:36:57.062Z,99905.17
2022-11-07T11:39:37.614Z,99904.02
2022-11-07T11:42:12.041Z,99900.77
2022-11-07T11:44:45.853Z,99898.47
2022-11-07T11:47:34.544Z,99903.83
2022-11-07T11:50:03.359Z,99903.89
2022-11-07T11:52:32.282Z,99906.02
2022-11-07T11:55:01.699Z,99907.89
2022-11-07T11:57:46.041Z,99907.48
2022-11-07T12:00:22.950Z,99901.70
2022-11-07T12:03:16.051Z,99903.02
2022-11-07T12:05:53.669Z,99896.65
2022-11-07T12:08:50.512Z,99892.83
2022-11-07T12:11:25.627Z,99899.39
2022-11-07T12:14:21.266Z,99896.45
2022-11-07T12:17:29.181Z,99905.36
2022-11-07T12:20:15.944Z,99908.25
2022-11-07T12:22:53.912Z,99906.64
2022-11-07T12:25:26.966Z,99902.30
2022-11-07T12:28:14.260Z,99905.33
2022-11-07T12:30:48.483Z,99907.88
2022-11-07T12:33:38.363Z,99913.14
2022-11-07T12:36:37.680Z,99911.21
2022-11-07T12:39:42.124Z,99910.37
2022-11-07T12:42:21.054Z,99912.57
2022-11-07T12:44:52.119Z,99914.20
2022-11-07T12:47:37.562Z,99914.15
2022-11-07T12:50:30.826Z,99914.30
2022-11-07T12:53:37.108Z,99918.79
2022-11-07T12:56:13.050Z,99914.58
2022-11-07T12:58:44.904Z,99912.14
2022-11-07T13:01:15.576Z,99910.89
2022-11-07T13:04:02.676Z,99913.15
2022-11-07T13:06:35.303Z,99916.08
2022-11-07T13:09:15.900Z,99914.19
2022-11-07T13:12:17.563Z,99911.46
2022-11-07T13:14:46.500Z,99916.86
2022-11-07T13:17:24.238Z,99909.93
2022-11-07T13:20:24.369Z,99915.59
2022-11-07T13:22:58.568Z,99912.39
2022-11-07T13:25:32.223Z,99912.83
2022-11-07T13:28:04.491Z,99913.45
2022-11-07T13:30:38.280Z,99913.80
2022-11-07T13:33:24.456Z,99916.38
2022-11-07T13:35:55.715Z,99917.39
2022-11-07T13:38:26.234Z,99913.67
2022-11-07T13:41:04.144Z,99914.73
2022-11-07T13:43:38.299Z,99914.10
2022-11-07T13:46:11.742Z,99913.73
2022-11-07T13:48:51.896Z,99915.32
2022-11-07T13:51:34.198Z,99917.08
2022-11-07T13:54:11.593Z,99916.66
2022-11-07T13:56:45.962Z,99921.02
2022-11-07T13:59:36.935Z,99920.13
2022-11-07T14:02:06.168Z,99918.23
2022-11-07T14:04:40.622Z,99922.49
2022-11-07T14:07:26.367Z,99924.38
2022-11-07T14:09:58.946Z,99926.65
2022-11-07T14:12:28.922Z,99927.67
2022-11-07T14:14:59.157Z,99925.94
2022-11-07T14:17:36.572Z,99925.84
2022-11-07T14:20:19.786Z,99923.94
2022-11-07T14:22:52.151Z,99921.80
2022-11-07T14:25:32.848Z,99913.82
2022-11-07T14:28:02.090Z,99910.40
2022-11-07T14:30:31.835Z,99906.36
2022-11-07T14:33:02.561Z,99907.48
2022-11-07T14:35:35.404Z,99907.98
2022-11-07T14:38:12.060Z,99905.26
2022-11-07T14:40:41.709Z,99907.39
2022-11-07T14:43:18.164Z,99908.13
2022-11-07T14:46:11.349Z,99912.50
2022-11-07T14:48:36.648Z,99911.39
2022-11-07T14:51:05.548Z,99911.00
2022-11-07T14:53:42.546Z,99916.37
2022-11-07T14:56:15.438Z,99919.67
2022-11-07T14:58:44.074Z,99917.45
2022-11-07T15:01:14.828Z,99922.55
2022-11-07T15:03:57.634Z,99929.19
2022-11-07T15:06:35.757Z,99931.89
2022-11-07T15:09:07.075Z,99938.52
2022-11-07T15:11:38.321Z,99940.52
2022-11-07T15:14:22.387Z,99939.54
2022-11-07T15:16:51.981Z,99943.95
2022-11-07T15:19:23.025Z,99940.70
2022-11-07T15:22:01.348Z,99936.55
2022-11-07T15:24:42.169Z,99942.09
2022-11-07T15:27:13.659Z,99938.70
2022-11-07T15:29:53.701Z,99942.55
2022-11-07T15:32:24.867Z,99944.71
2022-11-07T15:35:23.319Z,99945.37
2022-11-07T15:37:56.722Z,99945.27
2022-11-07T15:40:26.758Z,99948.84
2022-11-07T15:42:55.422Z,99949.55
2022-11-07T15:45:24.288Z,99944.13
2022-11-07T15:47:52.795Z,99948.94
2022-11-07T15:50:27.197Z,99953.02
2022-11-07T15:52:55.503Z,99961.78
2022-11-07T15:55:24.481Z,99966.06
2022-11-07T15:57:54.703Z,99974.95
2022-11-07T16:00:25.383Z,99971.27
2022-11-07T16:02:54.254Z,99966.33
2022-11-07T16:05:22.718Z,99969.49
2022-11-07T16:07:51.014Z,99974.30
2022-11-07T16:10:25.289Z,99978.04
2022-11-07T16:12:54.303Z,99978.36
2022-11-07T16:15:25.237Z,99979.09
2022-11-07T16:17:53.432Z,99981.44
2022-11-07T16:20:23.505Z,99982.19
2022-11-07T16:22:52.248Z,99985.55
2022-11-07T16:25:24.694Z,99988.70
2022-11-07T16:27:54.798Z,99987.57
2022-11-07T16:30:23.154Z,99985.64
2022-11-07T16:32:51.457Z,99984.23
2022-11-07T16:35:20.142Z,99988.02
2022-11-07T16:37:48.831Z,99992.14
2022-11-07T16:40:19.674Z,99990.44
2022-11-07T16:42:48.252Z,99991.31
2022-11-07T16:45:20.599Z,99998.30
2022-11-07T16:47:48.920Z,100000.16
2022-11-07T16:50:17.599Z,99991.44
2022-11-07T16:52:45.789Z,99988.82
2022-11-07T16:55:16.212Z,99986.71
2022-11-07T16:57:44.964Z,99983.34
2022-11-07T17:00:19.338Z,99989.40
2022-11-07T17:02:48.288Z,99982.00
2022-11-07T17:05:16.915Z,99986.04
2022-11-07T17:07:45.294Z,99989.96
2022-11-07T17:10:17.010Z,99992.67
2022-11-07T17:12:45.209Z,99993.81
2022-11-07T17:15:14.257Z,99998.33
2022-11-07T17:17:42.544Z,100001.08
2022-11-07T17:20:50.023Z,99999.64
2022-11-07T17:23:10.971Z,100003.14
2022-11-07T17:25:40.184Z,100002.39
2022-11-07T17:28:09.743Z,100003.55
2022-11-07T17:30:38.533Z,100002.92
2022-11-07T17:33:06.848Z,100000.89
2022-11-07T17:35:36.516Z,100001.96
2022-11-07T17:38:05.608Z,100002.08
2022-11-07T17:40:34.738Z,100004.54
2022-11-07T17:43:03.177Z,100000.08
2022-11-07T17:45:31.469Z,99999.56
2022-11-07T17:48:00.051Z,100001.77
2022-11-07T17:50:28.295Z,99999.54
2022-11-07T17:52:56.723Z,100001.23
2022-11-07T17:55:28.866Z,99999.29
2022-11-07T17:57:57.312Z,99998.23
2022-11-07T18:00:27.485Z,99992.44
2022-11-07T18:02:55.761Z,99993.06
2022-11-07T18:05:31.747Z,99994.30
2022-11-07T18:08:01.816Z,99989.34
2022-11-07T18:10:30.351Z,99986.19
2022-11-07T18:12:59.176Z,99982.56
2022-11-07T18:15:27.464Z,99973.81
2022-11-07T18:17:56.066Z,99986.20
2022-11-07T18:20:24.397Z,99991.41
2022-11-07T18:22:52.610Z,99989.27
2022-11-07T18:25:21.156Z,99990.42
2022-11-07T18:27:49.402Z,99990.31
2022-11-07T18:30:17.826Z,99994.98
2022-11-07T18:32:46.088Z,99993.59
2022-11-07T18:35:16.846Z,99992.81
2022-11-07T18:37:45.121Z,99996.09
2022-11-07T18:40:14.422Z,99993.77
2022-11-07T18:42:44.547Z,99990.42
2022-11-07T18:45:13.962Z,99989.25
2022-11-07T18:47:42.390Z,99989.34
2022-11-07T18:50:11.416Z,99991.19
2022-11-07T18:52:39.907Z,99995.60
2022-11-07T18:55:09.705Z,99999.95
2022-11-07T18:57:41.687Z,99994.36
2022-11-07T19:00:13.581Z,99997.11
2022-11-07T19:02:42.844Z,99999.06
2022-11-07T19:05:11.076Z,99996.41
2022-11-07T19:07:43.067Z,100000.98
2022-11-07T19:10:12.879Z,100001.62
2022-11-07T19:12:41.896Z,100002.02
2022-11-07T19:15:10.791Z,100003.03
2022-11-07T19:17:40.062Z,100004.36
2022-11-07T19:20:09.387Z,100006.34
2022-11-07T19:22:37.638Z,99998.85
2022-11-07T19:25:06.960Z,100001.02
2022-11-07T19:27:35.521Z,100005.04
2022-11-07T19:30:06.373Z,100003.80
2022-11-07T19:32:35.355Z,99997.71
2022-11-07T19:35:07.420Z,99997.04
2022-11-07T19:37:37.254Z,99994.30
2022-11-07T19:40:06.831Z,99998.63
2022-11-07T19:42:35.518Z,99997.36
2022-11-07T19:45:04.428Z,99998.15
2022-11-07T19:47:33.198Z,99998.19
2022-11-07T19:50:01.804Z,99999.27
2022-11-07T19:52:30.386Z,99997.27
2022-11-07T19:54:59.139Z,99999.92
2022-11-07T19:57:27.328Z,100002.86
2022-11-07T19:59:55.826Z,100003.24
2022-11-07T20:02:32.908Z,100004.89
2022-11-07T20:05:01.796Z,100003.15
2022-11-07T20:07:30.480Z,100009.33
2022-11-07T20:09:59.045Z,100010.91
2022-11-07T20:12:27.632Z,100011.35
2022-11-07T20:14:56.315Z,100007.27
2022-11-07T20:17:24.447Z,100003.14
2022-11-07T20:19:52.751Z,99999.80
2022-11-07T20:22:21.653Z,100001.08
2022-11-07T20:24:50.852Z,99997.63
2022-11-07T20:27:19.333Z,100007.71
2022-11-07T20:29:48.080Z,100005.20
2022-11-07T20:32:17.169Z,100001.99
2022-11-07T20:34:48.765Z,100008.35
2022-11-07T20:37:21.725Z,100010.19
2022-11-07T20:39:50.776Z,100005.25
2022-11-07T20:42:18.991Z,100004.16
2022-11-07T20:44:50.066Z,100003.42
2022-11-07T20:47:18.442Z,100003.96
2022-11-07T20:49:46.720Z,100008.83
2022-11-07T20:52:15.130Z,100011.27
2022-11-07T20:54:43.464Z,100017.38
2022-11-07T20:57:11.749Z,100014.58
2022-11-07T20:59:42.103Z,100015.75
2022-11-07T21:02:11.799Z,100021.70
2022-11-07T21:05:03.302Z,100015.56
2022-11-07T21:07:28.713Z,100013.08
2022-11-07T21:09:57.155Z,100013.83
2022-11-07T21:12:25.419Z,100011.26
2022-11-07T21:14:54.868Z,100007.87
2022-11-07T21:17:23.068Z,100008.01
2022-11-07T21:19:51.294Z,100009.44
2022-11-07T21:22:19.500Z,100014.36
2022-11-07T21:24:47.974Z,100014.27
2022-11-07T21:27:16.660Z,100016.84
2022-11-07T21:29:45.093Z,100017.41
2022-11-07T21:32:13.298Z,100013.99
2022-11-07T21:34:42.864Z,100015.29
2022-11-07T21:37:11.200Z,100011.48
2022-11-07T21:39:39.472Z,100013.02
2022-11-07T21:42:07.952Z,100009.95
2022-11-07T21:44:36.285Z,100013.00
2022-11-07T21:47:04.709Z,100011.31
2022-11-07T21:49:33.261Z,100013.58
2022-11-07T21:52:01.915Z,100019.55
2022-11-07T21:54:30.253Z,100021.73
2022-11-07T21:57:00.382Z,100025.86
2022-11-07T21:59:29.194Z,100027.27
2022-11-07T22:01:57.767Z,100029.50
